ウォリス島 の空港の天気 - METARとTAF

ヒヒフォ空港 ( NLWW / WLS ) - ウォリス・フツナ ウォリス島 マタウトゥ
飛行場実況気象(Metar)
観測時間09/19 11:00 WFT (09/18 23:00 UTC)
風向・風速東 5m/s
視程10km以上
天気現象
全天の4割程度の雲 雲底高度 760m
気温31℃
湿度66%
気圧1014hPa
METARNLWW 182300Z 08009KT 040V120 9999 SCT025 31/24 Q1014 NOSIG
過去の天気等 Google飛行場航空写真 Wunderground天気予報

過去48時間のMETAR

飛行場予報(TAF)
発表時間: 9/19 05:00 WFT (9/18 17:00 UTC)
予報対象時間: 19日6時 WFT ~ 20日6時 WFT
風向・風速東 4m/s
視程10km以上
全天の4割程度の雲 雲底高度 610m
20日1時 WFT ~ 20日6時 WFT に 確率 30% で一時的に
天気現象しゅう雨
TAF NLWW 181700Z 1818/1918 10008KT 9999 SCT020
PROB30 TEMPO 1913/1918 SHRA